Time;durP1;ratioP1;P1;durP2;ratioP2;P2;SDS_P1;SDS_P2;PMS_P1;PMS_P2;Temp;Humidity;BMP_temperature;BMP_pressure;BME280_temperature;BME280_humidity;BME280_pressure;Samples;Min_cycle;Max_cycle;Signal;HPM_P1;HPM_P2
2022/02/05 00:00:34;;;;;;;1.13;0.70;;;4.10;99.90;;;4.82;100.00;-19891.09;5049273;28;20236;-69
2022/02/05 00:03:16;;;;;;;1.07;0.80;;;4.10;99.90;;;4.74;100.00;-19888.38;5049945;28;20227;-68
2022/02/05 00:05:50;;;;;;;1.30;0.80;;;4.00;99.90;;;4.65;100.00;-19885.28;5050084;28;20194;-70
2022/02/05 00:08:30;;;;;;;0.70;0.70;;;4.00;99.90;;;4.83;100.00;-19891.44;5050870;28;20216;-68
2022/02/05 00:20:19;;;;;;;1.60;1.30;;;4.10;99.90;;;4.71;100.00;-19887.19;5044153;28;20229;-71
2022/02/05 00:42:24;;;;;;;1.93;1.20;;;4.10;99.90;;;4.79;100.00;-19889.91;5046222;28;20331;-70
2022/02/05 00:44:53;;;;;;;1.77;1.27;;;4.10;99.90;;;4.79;100.00;-19889.91;5053211;28;20291;-71
2022/02/05 00:47:21;;;;;;;2.57;1.37;;;4.00;99.90;;;4.57;100.00;-19882.38;5057750;28;20254;-70
2022/02/05 00:49:56;;;;;;;2.47;1.33;;;4.00;99.90;;;4.76;100.00;-19889.06;5073289;28;20219;-71
2022/02/05 00:52:25;;;;;;;4.90;1.97;;;4.00;99.90;;;4.67;100.00;-19885.81;5072919;28;20314;-72
2022/02/05 00:55:05;;;;;;;3.33;1.70;;;4.00;99.90;;;4.83;100.00;-19891.28;5073088;28;20226;-68
2022/02/05 00:57:45;;;;;;;2.23;1.63;;;4.00;99.90;;;4.76;100.00;-19888.88;5073127;28;20631;-70
2022/02/05 01:00:22;;;;;;;2.80;1.27;;;4.00;99.90;;;4.69;100.00;-19886.66;5055319;28;20232;-70
2022/02/05 01:02:50;;;;;;;2.67;1.70;;;4.00;99.90;;;4.70;100.00;-19886.84;5052600;28;20232;-68
2022/02/05 01:05:20;;;;;;;4.37;1.87;;;4.00;99.90;;;4.68;100.00;-19886.31;5053710;28;20626;-69
2022/02/05 01:07:48;;;;;;;6.00;1.80;;;3.90;99.90;;;4.71;100.00;-19887.19;5052495;28;20232;-70
2022/02/05 01:10:17;;;;;;;5.17;1.70;;;4.00;99.90;;;4.65;100.00;-19885.28;5052362;28;20243;-69
2022/02/05 01:12:51;;;;;;;3.10;1.53;;;3.90;99.90;;;4.60;100.00;-19883.59;5052723;28;20301;-70
2022/02/05 01:15:22;;;;;;;3.80;1.77;;;3.90;99.90;;;4.63;100.00;-19884.59;5052836;28;20263;-69
2022/02/05 01:17:56;;;;;;;3.03;1.67;;;3.90;99.90;;;4.67;100.00;-19885.81;5052526;28;20230;-70
2022/02/05 01:21:00;;;;;;;4.30;1.60;;;3.90;99.90;;;4.57;100.00;-19882.38;5053574;28;20208;-69
2022/02/05 01:23:35;;;;;;;1.93;1.73;;;3.90;99.90;;;4.64;100.00;-19884.97;5052613;28;20752;-70
2022/02/05 01:26:11;;;;;;;4.00;1.70;;;3.90;99.90;;;4.84;100.00;-19891.78;5053272;28;20216;-68
2022/02/05 01:28:41;;;;;;;2.47;1.40;;;4.00;99.90;;;4.71;100.00;-19887.34;5052452;28;20635;-70
2022/02/05 01:31:09;;;;;;;5.03;1.97;;;4.00;99.90;;;5.10;100.00;-19900.34;5052665;28;20223;-70
2022/02/05 01:33:51;;;;;;;4.07;1.93;;;4.10;99.90;;;4.81;100.00;-19890.78;5052465;28;20290;-71
2022/02/05 01:48:44;;;;;;;3.40;2.13;;;4.00;99.90;;;4.80;100.00;-19890.41;5010216;28;20258;-71
2022/02/05 01:53:48;;;;;;;5.10;2.40;;;3.80;99.90;;;4.30;100.00;-19873.16;5061267;28;20655;-70
2022/02/05 01:56:32;;;;;;;6.27;2.40;;;3.70;99.90;;;4.21;100.00;-19870.25;5055707;28;20239;-69
2022/02/05 01:59:17;;;;;;;3.20;2.50;;;3.70;99.90;;;4.60;100.00;-19883.41;5051480;28;20808;-69
2022/02/05 02:04:52;;;;;;;7.93;2.70;;;3.80;99.90;;;4.50;100.00;-19880.16;5051799;28;20271;-71
2022/02/05 02:13:31;;;;;;;5.57;2.90;;;3.70;99.90;;;4.20;100.00;-19869.91;5052051;28;20224;-70
2022/02/05 02:16:10;;;;;;;5.53;2.90;;;3.60;99.90;;;4.43;100.00;-19877.59;5071648;28;20310;-71
2022/02/05 02:18:52;;;;;;;7.93;3.13;;;3.70;99.90;;;4.42;100.00;-19877.25;5071248;28;20227;-70
2022/02/05 02:21:30;;;;;;;4.10;3.30;;;3.70;99.90;;;4.33;100.00;-19874.34;5071339;28;20808;-69
2022/02/05 02:24:06;;;;;;;5.50;3.13;;;3.60;99.90;;;4.40;100.00;-19876.75;5071138;28;20306;-70
2022/02/05 02:26:48;;;;;;;5.07;3.17;;;3.60;99.90;;;4.21;100.00;-19870.25;5071702;28;20280;-71
2022/02/05 02:29:26;;;;;;;4.93;3.47;;;3.60;99.90;;;4.10;100.00;-19866.50;5072454;28;20186;-72
2022/02/05 02:31:56;;;;;;;7.30;4.47;;;3.50;99.90;;;4.07;100.00;-19865.47;5077026;28;20778;-71
2022/02/05 02:34:29;;;;;;;7.40;4.23;;;3.50;99.90;;;3.96;100.00;-19861.53;5071044;28;20335;-70
2022/02/05 02:37:08;;;;;;;10.73;4.80;;;3.40;99.90;;;3.90;100.00;-19859.66;5070964;28;20220;-69
2022/02/05 02:39:50;;;;;;;6.73;4.20;;;3.30;99.90;;;4.02;100.00;-19863.59;5073616;28;20264;-71
2022/02/05 02:42:20;;;;;;;7.03;3.53;;;3.30;99.90;;;4.11;100.00;-19866.84;5091212;28;20616;-70
2022/02/05 02:44:49;;;;;;;6.07;3.23;;;3.30;99.90;;;4.11;100.00;-19866.84;5091222;28;20205;-70
2022/02/05 02:47:17;;;;;;;7.97;2.80;;;3.30;99.90;;;4.06;100.00;-19865.13;5091624;28;20292;-71
2022/02/05 02:49:54;;;;;;;6.57;3.47;;;3.40;99.90;;;4.20;100.00;-19869.75;5090762;28;20310;-70
2022/02/05 02:57:58;;;;;;;4.87;3.20;;;3.40;99.90;;;4.12;100.00;-19867.19;5019982;28;20232;-70
2022/02/05 03:00:27;;;;;;;8.83;3.37;;;3.40;99.90;;;4.13;100.00;-19867.34;5070476;28;20773;-70
2022/02/05 03:02:55;;;;;;;6.10;3.30;;;3.40;99.90;;;4.15;100.00;-19868.03;5070775;28;20655;-70
2022/02/05 03:05:24;;;;;;;4.63;3.03;;;3.40;99.90;;;4.18;100.00;-19869.22;5071089;28;20206;-70
2022/02/05 03:07:54;;;;;;;4.23;3.40;;;3.50;99.90;;;4.40;100.00;-19876.75;5070322;28;20310;-70
2022/02/05 03:10:22;;;;;;;5.57;3.73;;;3.50;99.90;;;4.27;100.00;-19872.31;5070195;28;20255;-69
2022/02/05 03:12:50;;;;;;;5.73;4.47;;;3.50;99.90;;;4.21;100.00;-19870.09;5070350;28;20229;-70
2022/02/05 03:15:20;;;;;;;4.77;3.70;;;3.50;99.90;;;4.21;100.00;-19870.25;5070388;28;20312;-69
2022/02/05 03:18:01;;;;;;;4.50;3.60;;;3.50;99.90;;;4.13;100.00;-19867.53;5070515;28;20568;-69
2022/02/05 03:20:30;;;;;;;8.80;4.47;;;3.50;99.90;;;4.30;100.00;-19873.16;5070924;28;20196;-70
2022/02/05 03:23:01;;;;;;;7.50;4.50;;;3.50;99.90;;;4.08;100.00;-19865.63;5070484;28;20323;-70
2022/02/05 03:25:30;;;;;;;4.87;3.40;;;3.40;99.90;;;3.88;100.00;-19858.81;5070224;28;20262;-70
2022/02/05 03:28:01;;;;;;;6.00;3.47;;;3.30;99.90;;;3.86;100.00;-19858.28;5070501;28;20251;-71
2022/02/05 03:30:31;;;;;;;5.00;2.73;;;3.20;99.90;;;3.77;100.00;-19855.22;5070350;28;20656;-69
2022/02/05 03:33:00;;;;;;;6.43;3.07;;;3.20;99.90;;;3.75;100.00;-19854.69;5069735;28;20304;-69
2022/02/05 03:35:28;;;;;;;4.60;2.80;;;3.10;99.90;;;3.69;100.00;-19852.66;5070637;28;20236;-69
2022/02/05 03:37:56;;;;;;;5.73;2.93;;;3.10;99.90;;;3.75;100.00;-19854.53;5070028;28;20285;-70
2022/02/05 03:40:26;;;;;;;3.60;2.63;;;3.10;99.90;;;3.71;100.00;-19853.16;5070052;28;20309;-71
2022/02/05 03:42:54;;;;;;;5.60;2.70;;;3.00;99.90;;;3.68;100.00;-19852.13;5070298;28;20260;-70
2022/02/05 03:45:22;;;;;;;3.03;2.40;;;3.00;99.90;;;3.76;100.00;-19854.88;5070142;28;20311;-71
2022/02/05 03:47:51;;;;;;;4.63;2.73;;;3.10;99.90;;;3.75;100.00;-19854.69;5070084;28;20201;-70
2022/02/05 03:50:20;;;;;;;3.37;2.70;;;3.10;99.90;;;3.66;100.00;-19851.44;5070611;28;20604;-69
2022/02/05 03:52:48;;;;;;;4.43;2.50;;;3.00;99.90;;;3.69;100.00;-19852.47;5070167;28;20240;-71
2022/02/05 03:55:16;;;;;;;4.90;2.70;;;3.10;99.90;;;3.91;100.00;-19860.00;5070306;28;20314;-71
2022/02/05 03:57:47;;;;;;;4.07;2.93;;;3.10;99.90;;;3.69;100.00;-19852.47;5070081;28;20311;-71
2022/02/05 04:00:16;;;;;;;3.97;2.83;;;3.10;99.90;;;3.55;100.00;-19847.88;5069924;28;20228;-71
2022/02/05 04:02:44;;;;;;;4.20;3.50;;;3.00;99.90;;;3.46;100.00;-19844.78;5069929;28;20270;-71
2022/02/05 04:05:12;;;;;;;3.93;3.53;;;3.00;99.90;;;3.49;100.00;-19845.63;5070632;28;20199;-70
2022/02/05 04:07:44;;;;;;;4.97;4.03;;;2.90;99.90;;;3.61;100.00;-19849.75;5069776;28;20260;-69
2022/02/05 04:10:15;;;;;;;4.77;3.90;;;3.00;99.90;;;3.70;100.00;-19853.00;5069507;28;20311;-68
2022/02/05 04:18:16;;;;;;;7.33;4.83;;;2.90;99.90;;;3.65;100.00;-19851.28;5073618;28;20323;-70
2022/02/05 04:20:44;;;;;;;5.53;4.00;;;2.90;99.90;;;3.69;100.00;-19852.66;5073538;28;20637;-70
2022/02/05 04:23:12;;;;;;;5.27;3.23;;;2.90;99.90;;;3.59;100.00;-19849.06;5074299;28;20217;-69
2022/02/05 04:25:41;;;;;;;6.90;3.80;;;2.90;99.90;;;3.53;100.00;-19847.19;5073354;28;20221;-71
2022/02/05 04:28:11;;;;;;;5.87;3.10;;;2.90;99.90;;;3.49;100.00;-19845.63;5073252;28;20301;-70
2022/02/05 04:30:39;;;;;;;5.43;3.90;;;2.80;99.90;;;3.54;100.00;-19847.53;5073110;28;20323;-70
2022/02/05 04:33:07;;;;;;;4.70;3.20;;;2.90;99.90;;;3.63;100.00;-19850.59;5081465;28;20703;-70
2022/02/05 04:35:35;;;;;;;4.63;3.27;;;2.90;99.90;;;3.55;100.00;-19847.69;5073771;28;20271;-70
2022/02/05 04:38:05;;;;;;;5.87;3.53;;;2.90;99.90;;;3.47;100.00;-19844.97;5073710;28;20205;-69
2022/02/05 04:40:41;;;;;;;8.50;3.83;;;2.90;99.90;;;3.69;100.00;-19852.47;5073079;28;20304;-70
2022/02/05 04:43:22;;;;;;;5.90;3.27;;;3.00;99.90;;;3.62;100.00;-19850.09;5073049;28;20229;-70
2022/02/05 04:46:15;;;;;;;8.13;3.47;;;3.00;99.90;;;3.56;100.00;-19848.22;5072862;28;20257;-70
2022/02/05 04:49:17;;;;;;;6.40;3.27;;;2.90;99.90;;;3.57;100.00;-19848.53;5073165;28;20277;-69
2022/02/05 04:54:50;;;;;;;4.80;3.53;;;2.90;99.90;;;3.61;100.00;-19849.75;5072682;28;20277;-69
2022/02/05 04:57:33;;;;;;;7.27;3.80;;;2.90;99.90;;;3.69;100.00;-19852.47;5072778;28;20720;-70
2022/02/05 05:00:22;;;;;;;6.17;4.27;;;2.90;99.90;;;3.57;100.00;-19848.38;5073017;28;20224;-70
2022/02/05 05:03:25;;;;;;;6.27;4.20;;;2.90;99.90;;;3.43;100.00;-19843.75;5072932;28;20244;-69
2022/02/05 05:06:11;;;;;;;6.73;3.80;;;2.90;99.90;;;3.59;100.00;-19849.22;5069022;28;21796;-69
2022/02/05 05:08:49;;;;;;;5.93;3.93;;;2.80;99.90;;;3.51;100.00;-19846.31;5072826;28;20209;-69
2022/02/05 05:19:37;;;;;;;5.27;3.20;;;2.90;99.90;;;3.54;100.00;-19847.34;5046116;28;20286;-69
2022/02/05 05:22:05;;;;;;;5.53;3.70;;;2.90;99.90;;;3.67;100.00;-19851.78;5052114;28;20237;-69
2022/02/05 05:24:33;;;;;;;6.17;3.80;;;2.90;99.90;;;3.82;100.00;-19856.94;5054079;28;20300;-69
2022/02/05 05:27:01;;;;;;;4.53;3.30;;;3.00;99.90;;;3.88;100.00;-19858.97;5071919;28;20251;-69
2022/02/05 05:29:29;;;;;;;4.70;3.33;;;3.00;99.90;;;3.78;100.00;-19855.56;5084205;28;20615;-70
2022/02/05 05:31:59;;;;;;;4.40;3.37;;;3.00;99.90;;;3.58;100.00;-19848.91;5092637;28;20598;-70
2022/02/05 05:34:27;;;;;;;5.00;3.47;;;2.90;99.90;;;3.65;100.00;-19851.13;5079144;28;20235;-69
2022/02/05 05:36:56;;;;;;;4.00;3.50;;;2.90;99.90;;;3.56;100.00;-19848.22;5072109;28;20223;-70
2022/02/05 05:39:24;;;;;;;6.30;4.00;;;2.90;99.90;;;3.40;100.00;-19842.72;5072378;28;20244;-70
2022/02/05 05:41:52;;;;;;;4.33;3.87;;;2.80;99.90;;;3.43;100.00;-19843.75;5072085;28;20292;-71
2022/02/05 05:44:49;;;;;;;5.43;3.77;;;2.80;99.90;;;3.65;100.00;-19851.13;5072681;28;20629;-70
2022/02/05 05:47:32;;;;;;;5.90;4.17;;;2.90;99.90;;;3.70;100.00;-19852.81;5071106;28;20644;-69
2022/02/05 05:50:09;;;;;;;7.63;4.40;;;2.90;99.90;;;3.71;100.00;-19853.16;5052405;28;20580;-70
2022/02/05 05:52:38;;;;;;;7.40;4.20;;;3.00;99.90;;;3.64;100.00;-19850.94;5069083;28;20278;-71
2022/02/05 05:55:07;;;;;;;6.73;5.77;;;3.00;99.90;;;3.62;100.00;-19850.09;5092231;28;20240;-71
2022/02/05 05:57:35;;;;;;;8.00;5.43;;;2.90;99.90;;;3.61;100.00;-19849.91;5092199;28;20257;-70
2022/02/05 06:00:05;;;;;;;10.03;6.10;;;2.90;99.90;;;3.86;100.00;-19858.28;5092258;28;20220;-69
2022/02/05 06:02:34;;;;;;;7.47;6.13;;;3.00;99.90;;;3.69;100.00;-19852.47;5092606;28;20263;-68
2022/02/05 06:05:02;;;;;;;8.17;6.10;;;3.00;99.90;;;3.72;100.00;-19853.50;5092782;28;20282;-71
2022/02/05 06:07:31;;;;;;;6.87;5.77;;;3.00;99.90;;;3.70;100.00;-19853.00;5091962;28;20236;-70
2022/02/05 06:09:59;;;;;;;8.77;5.90;;;3.00;99.90;;;3.80;100.00;-19856.25;5091780;28;20715;-71
2022/02/05 06:12:27;;;;;;;6.83;5.43;;;3.00;99.90;;;3.82;100.00;-19856.94;5092023;28;20220;-70
2022/02/05 06:14:57;;;;;;;7.27;5.53;;;3.10;99.90;;;3.70;100.00;-19852.81;5092137;28;20290;-70
2022/02/05 06:17:26;;;;;;;9.17;5.33;;;3.00;99.90;;;3.82;100.00;-19856.94;5092447;28;20243;-70
2022/02/05 06:19:55;;;;;;;8.27;5.50;;;3.10;99.90;;;3.69;100.00;-19852.66;5072304;28;20759;-70
2022/02/05 06:22:23;;;;;;;7.63;5.50;;;3.00;99.90;;;3.71;100.00;-19853.16;5071223;28;20256;-69
2022/02/05 06:24:51;;;;;;;7.60;5.37;;;3.00;99.90;;;3.80;100.00;-19856.25;5071321;28;20238;-70
2022/02/05 06:27:19;;;;;;;7.60;5.83;;;3.10;99.90;;;3.76;100.00;-19854.88;5071679;28;20256;-71
2022/02/05 06:29:47;;;;;;;9.20;5.90;;;3.10;99.90;;;3.80;100.00;-19856.25;5071984;28;20254;-71
2022/02/05 06:32:17;;;;;;;8.33;5.80;;;3.10;99.90;;;3.73;100.00;-19853.84;5071938;28;20233;-69
2022/02/05 06:34:46;;;;;;;9.23;5.87;;;3.10;99.90;;;3.87;100.00;-19858.63;5071108;28;20760;-72
2022/02/05 06:37:15;;;;;;;7.77;5.80;;;3.20;99.90;;;3.74;100.00;-19854.34;5071086;28;20245;-70
2022/02/05 06:39:43;;;;;;;10.77;8.30;;;3.10;99.90;;;3.73;100.00;-19853.84;5070622;28;20623;-71
2022/02/05 06:42:12;;;;;;;7.27;5.77;;;3.10;99.90;;;3.82;100.00;-19856.94;5071620;28;20307;-69
2022/02/05 06:44:40;;;;;;;6.93;5.50;;;3.10;99.90;;;3.82;100.00;-19856.75;5071315;28;20226;-69
2022/02/05 06:47:08;;;;;;;6.00;4.73;;;3.10;99.90;;;3.85;100.00;-19857.78;5072028;28;20245;-62
2022/02/05 06:49:36;;;;;;;5.70;4.77;;;3.10;99.90;;;3.89;100.00;-19859.31;5070913;28;20774;-63
2022/02/05 06:52:07;;;;;;;5.87;4.53;;;3.20;99.90;;;3.94;100.00;-19860.84;5070929;28;20228;-62
2022/02/05 06:54:36;;;;;;;5.80;4.60;;;3.20;99.90;;;3.95;100.00;-19861.19;5070963;28;20222;-64
2022/02/05 06:57:05;;;;;;;8.47;4.63;;;3.20;99.90;;;4.00;100.00;-19863.06;5071351;28;20270;-63
2022/02/05 06:59:33;;;;;;;6.00;3.90;;;3.30;99.90;;;4.10;100.00;-19866.31;5071049;28;20647;-64
2022/02/05 07:02:02;;;;;;;8.57;4.23;;;3.30;99.90;;;4.19;100.00;-19869.56;5071755;28;20645;-64
2022/02/05 07:04:30;;;;;;;11.83;4.77;;;3.40;99.90;;;4.10;100.00;-19866.50;5070858;28;20734;-62
2022/02/05 07:06:58;;;;;;;4.40;3.87;;;3.40;99.90;;;4.24;100.00;-19871.13;5070963;28;20307;-63
2022/02/05 07:09:28;;;;;;;7.37;4.17;;;3.50;99.90;;;4.38;100.00;-19875.91;5070557;28;20286;-63
2022/02/05 07:11:59;;;;;;;5.73;3.90;;;3.60;99.90;;;4.42;100.00;-19877.25;5070816;28;20224;-63
2022/02/05 07:14:33;;;;;;;6.67;4.23;;;3.60;99.90;;;4.47;100.00;-19879.16;5071179;28;20724;-63
2022/02/05 07:17:07;;;;;;;5.60;3.40;;;3.70;99.90;;;4.44;100.00;-19877.94;5069663;28;20224;-63
2022/02/05 07:19:51;;;;;;;6.13;4.67;;;3.70;99.90;;;4.56;100.00;-19882.06;5070814;28;20227;-63
2022/02/05 07:22:19;;;;;;;4.87;3.63;;;3.80;99.90;;;4.55;100.00;-19881.88;5084995;28;20235;-62
2022/02/05 07:25:01;;;;;;;5.27;4.40;;;3.80;99.90;;;4.52;100.00;-19880.84;5090675;28;20275;-63
2022/02/05 07:30:16;;;;;;;6.13;4.20;;;3.90;99.90;;;4.64;100.00;-19884.78;5091221;28;20313;-63
2022/02/05 07:32:54;;;;;;;6.93;4.17;;;3.90;99.90;;;4.73;100.00;-19888.03;5082061;28;20562;-64
2022/02/05 07:35:25;;;;;;;7.37;4.70;;;3.90;99.90;;;4.64;100.00;-19884.78;5070807;28;20721;-63
2022/02/05 07:37:56;;;;;;;6.67;4.37;;;3.90;99.90;;;4.59;100.00;-19883.25;5070440;28;20232;-63
2022/02/05 07:40:24;;;;;;;6.23;4.50;;;3.90;99.90;;;4.56;100.00;-19882.06;5070496;28;20230;-63
2022/02/05 07:42:54;;;;;;;7.70;5.00;;;3.90;99.90;;;4.67;100.00;-19885.81;5070460;28;20221;-63
2022/02/05 07:45:22;;;;;;;7.27;5.00;;;3.90;99.90;;;4.60;100.00;-19883.41;5070282;28;20653;-62
2022/02/05 07:47:50;;;;;;;7.23;5.27;;;3.90;99.90;;;4.59;100.00;-19883.06;5070491;28;20236;-64
2022/02/05 07:50:19;;;;;;;8.33;5.63;;;3.90;99.90;;;4.59;100.00;-19883.06;5071440;28;20287;-63
2022/02/05 07:52:47;;;;;;;7.30;5.40;;;3.90;99.90;;;4.78;100.00;-19889.75;5074780;28;20235;-63
2022/02/05 07:55:15;;;;;;;8.33;5.70;;;4.00;99.90;;;4.85;100.00;-19891.97;5074282;28;20292;-63
2022/02/05 07:57:43;;;;;;;7.30;5.53;;;4.10;99.90;;;5.02;100.00;-19897.78;5074257;28;20701;-63
2022/02/05 08:00:14;;;;;;;6.70;5.53;;;4.10;99.90;;;5.28;100.00;-19906.66;5074196;28;20250;-63
2022/02/05 08:02:42;;;;;;;7.13;5.43;;;4.30;99.90;;;5.55;100.00;-19915.88;5074001;28;20240;-64
2022/02/05 08:05:11;;;;;;;10.53;6.07;;;4.40;99.90;;;5.59;100.00;-19917.25;5074585;28;20310;-63
2022/02/05 08:07:39;;;;;;;6.13;5.00;;;4.60;99.90;;;5.80;100.00;-19924.44;5073944;28;20226;-63
2022/02/05 08:10:09;;;;;;;8.67;5.03;;;4.70;99.90;;;5.70;100.00;-19921.03;5073717;28;20235;-63
2022/02/05 08:12:41;;;;;;;5.80;4.33;;;4.70;99.90;;;5.43;100.00;-19911.63;5074161;28;20310;-63
2022/02/05 08:15:11;;;;;;;6.73;4.50;;;4.70;99.90;;;5.28;100.00;-19906.50;5073898;28;20235;-63
2022/02/05 08:17:41;;;;;;;8.13;5.70;;;4.60;99.90;;;5.10;100.00;-19900.50;5080746;28;20699;-63
2022/02/05 08:20:11;;;;;;;5.47;4.07;;;4.40;99.90;;;5.23;100.00;-19904.78;5094805;28;20230;-63
2022/02/05 08:22:39;;;;;;;7.07;4.33;;;4.50;99.90;;;5.46;100.00;-19912.81;5093962;28;20229;-64
2022/02/05 08:25:09;;;;;;;5.37;4.50;;;4.50;99.90;;;5.55;100.00;-19915.72;5094518;28;20279;-62
2022/02/05 08:27:38;;;;;;;5.90;4.20;;;4.60;99.90;;;5.69;100.00;-19920.69;5094586;28;20234;-67
2022/02/05 08:30:11;;;;;;;6.27;4.07;;;4.70;99.90;;;5.85;100.00;-19925.97;5076943;28;20689;-68
2022/02/05 08:32:43;;;;;;;6.63;4.47;;;4.90;99.90;;;6.04;100.00;-19932.47;5074095;28;20205;-68
2022/02/05 08:35:12;;;;;;;5.97;4.23;;;5.00;99.90;;;5.92;100.00;-19928.38;5073938;28;20288;-67
2022/02/05 08:37:45;;;;;;;8.20;4.17;;;5.00;99.90;;;5.98;100.00;-19930.44;5073569;28;20335;-67
2022/02/05 08:40:14;;;;;;;5.17;4.10;;;5.00;99.90;;;6.11;100.00;-19935.03;5073471;28;20227;-67
2022/02/05 08:42:43;;;;;;;6.20;4.00;;;5.10;99.90;;;6.21;100.00;-19938.28;5073509;28;20302;-68
2022/02/05 08:45:11;;;;;;;6.63;4.27;;;5.20;99.90;;;6.27;100.00;-19940.34;5072927;28;20219;-67
2022/02/05 08:47:40;;;;;;;6.87;3.87;;;5.30;99.90;;;6.42;100.00;-19945.28;5073450;28;20602;-68
2022/02/05 08:50:09;;;;;;;7.47;4.67;;;5.30;99.90;;;6.41;100.00;-19944.94;5073658;28;20200;-66
2022/02/05 08:52:40;;;;;;;5.10;4.40;;;5.40;99.90;;;6.40;100.00;-19944.78;5073284;28;20259;-68
2022/02/05 08:55:10;;;;;;;7.23;3.77;;;5.40;99.90;;;6.36;100.00;-19943.25;5073440;28;20259;-68
2022/02/05 08:57:39;;;;;;;8.60;5.80;;;5.40;99.90;;;6.47;100.00;-19947.19;5073348;28;20227;-68
2022/02/05 09:00:13;;;;;;;8.40;3.73;;;5.50;99.90;;;6.42;100.00;-19945.47;5073097;28;20224;-67
2022/02/05 09:02:49;;;;;;;7.23;3.73;;;5.50;99.90;;;6.52;100.00;-19948.88;5072600;28;20199;-67
2022/02/05 09:05:28;;;;;;;5.20;4.13;;;5.50;99.90;;;6.47;100.00;-19947.19;5073761;28;20278;-68
2022/02/05 09:07:58;;;;;;;6.23;3.47;;;5.50;99.90;;;6.56;100.00;-19950.25;5072938;28;20319;-68
2022/02/05 09:10:32;;;;;;;5.17;3.60;;;5.60;99.90;;;6.45;100.00;-19946.31;5072557;28;20690;-68
2022/02/05 09:13:12;;;;;;;4.97;3.47;;;5.60;99.90;;;6.40;100.00;-19944.78;5073069;28;20256;-67
2022/02/05 09:15:43;;;;;;;5.43;3.10;;;5.50;99.90;;;6.73;100.00;-19955.88;5052955;28;20261;-68
2022/02/05 09:18:14;;;;;;;6.13;3.10;;;5.70;99.90;;;6.96;100.00;-19963.75;5064864;28;20227;-68
2022/02/05 09:20:44;;;;;;;4.47;3.47;;;5.90;99.90;;;6.75;100.00;-19956.75;5072747;28;20631;-68
2022/02/05 09:23:12;;;;;;;5.13;3.30;;;5.80;99.90;;;6.72;100.00;-19955.72;5073520;28;20227;-67
2022/02/05 09:25:42;;;;;;;5.90;3.43;;;5.80;99.90;;;6.80;100.00;-19958.28;5072309;28;20749;-67
2022/02/05 09:28:10;;;;;;;5.67;3.50;;;5.80;99.90;;;6.76;100.00;-19957.09;5073054;28;20248;-68
2022/02/05 09:30:49;;;;;;;4.90;3.00;;;5.80;99.90;;;7.03;100.00;-19966.16;5072609;28;20224;-67
2022/02/05 09:33:19;;;;;;;5.90;3.37;;;5.90;99.90;;;7.08;100.00;-19968.03;5072404;28;20330;-67
2022/02/05 09:35:47;;;;;;;5.00;3.50;;;6.00;99.90;;;7.03;99.24;-19966.31;5072781;28;20598;-68
2022/02/05 09:38:16;;;;;;;4.10;2.87;;;6.10;99.90;;;7.41;100.00;-19979.31;5073057;28;20207;-68
2022/02/05 09:40:44;;;;;;;8.17;3.80;;;6.20;99.90;;;7.46;98.47;-19980.66;5070288;28;20212;-60
2022/02/05 09:43:14;;;;;;;5.27;3.20;;;6.40;99.90;;;7.26;98.30;-19974.00;5072249;28;20762;-64
2022/02/05 09:45:43;;;;;;;3.53;2.80;;;6.30;99.90;;;6.97;98.66;-19964.25;5071925;28;20311;-69
2022/02/05 09:48:11;;;;;;;6.37;3.43;;;6.20;99.90;;;6.87;100.00;-19960.66;5072207;28;20216;-67
2022/02/05 09:50:41;;;;;;;5.60;4.00;;;6.10;99.90;;;6.88;100.00;-19961.00;5072161;28;20247;-65
2022/02/05 09:53:15;;;;;;;5.90;3.53;;;6.00;99.90;;;7.01;99.84;-19965.47;5072496;28;20399;-66
2022/02/05 09:55:46;;;;;;;8.77;3.30;;;6.10;99.90;;;7.11;98.75;-19969.03;5071524;28;20240;-65
2022/02/05 09:58:15;;;;;;;7.73;3.20;;;6.10;99.90;;;7.10;98.89;-19968.53;5072086;28;20258;-65
2022/02/05 10:01:00;;;;;;;6.00;3.00;;;6.20;99.90;;;7.35;98.47;-19977.25;5071118;28;20244;-68
2022/02/05 10:03:33;;;;;;;6.10;3.43;;;6.30;99.90;;;7.44;96.96;-19980.31;5072067;28;20232;-70
2022/02/05 10:06:09;;;;;;;6.60;3.40;;;6.30;99.90;;;7.42;96.72;-19979.63;5071857;28;20621;-68
2022/02/05 10:08:39;;;;;;;5.27;3.40;;;6.40;99.90;;;7.58;96.63;-19984.78;5072241;28;20221;-69
2022/02/05 10:11:08;;;;;;;6.73;3.67;;;6.50;99.90;;;7.65;96.56;-19987.16;5071948;28;20672;-69
2022/02/05 10:13:38;;;;;;;4.93;3.33;;;6.60;99.90;;;7.60;96.06;-19985.63;5071067;28;20630;-69
2022/02/05 10:16:07;;;;;;;5.20;3.27;;;6.60;99.90;;;7.64;94.29;-19986.81;5071049;28;20267;-69
2022/02/05 10:18:39;;;;;;;5.77;3.47;;;6.60;99.90;;;7.54;93.65;-19983.56;5071932;28;20716;-68
2022/02/05 10:21:24;;;;;;;6.47;3.40;;;6.60;99.90;;;7.40;96.06;-19978.97;5071948;28;20576;-70
2022/02/05 10:23:59;;;;;;;3.80;2.60;;;6.50;99.90;;;7.35;95.51;-19977.25;5072009;28;20192;-69
2022/02/05 10:26:37;;;;;;;4.80;2.43;;;6.50;99.90;;;7.59;93.32;-19985.09;5072187;28;20228;-70
2022/02/05 10:29:10;;;;;;;5.47;2.60;;;6.50;99.90;;;7.68;92.86;-19988.19;5072054;28;20332;-70
2022/02/05 10:31:59;;;;;;;5.47;3.10;;;6.70;99.90;;;7.56;93.20;-19984.25;5071523;28;20244;-70
2022/02/05 10:34:29;;;;;;;4.17;2.40;;;6.70;99.90;;;7.36;93.61;-19977.59;5071550;28;20229;-68
2022/02/05 10:37:18;;;;;;;3.73;2.30;;;6.50;99.90;;;7.31;93.67;-19975.72;5071600;28;20228;-69
2022/02/05 10:40:05;;;;;;;7.53;2.07;;;6.50;99.90;;;7.27;93.11;-19974.50;5074470;28;20225;-70
2022/02/05 10:45:20;;;;;;;5.07;2.80;;;6.50;99.90;;;7.66;92.55;-19987.66;5078032;28;20232;-70
2022/02/05 10:47:55;;;;;;;5.53;3.00;;;6.60;99.90;;;7.91;91.67;-19996.22;5091071;28;20238;-69
2022/02/05 10:50:26;;;;;;;6.67;2.90;;;6.80;99.90;;;7.86;90.69;-19994.34;5091878;28;20187;-70
2022/02/05 10:53:01;;;;;;;6.13;2.60;;;6.80;99.90;;;7.84;91.11;-19993.81;5091183;28;20262;-69
2022/02/05 10:55:59;;;;;;;6.43;2.90;;;6.80;99.90;;;7.79;90.50;-19991.94;5091300;28;20255;-69
2022/02/05 10:58:48;;;;;;;5.80;2.50;;;6.80;99.90;;;7.44;90.79;-19980.31;5091533;28;20307;-69
2022/02/05 11:07:08;;;;;;;3.10;1.93;;;6.30;99.90;;;7.00;93.43;-19965.13;5090924;28;20711;-69
2022/02/05 11:09:39;;;;;;;3.70;2.53;;;6.20;99.90;;;7.24;93.66;-19973.50;5091009;28;20703;-69
2022/02/05 11:15:16;;;;;;;3.17;1.70;;;6.50;99.90;;;7.88;86.60;-19995.03;5090689;28;20216;-68
2022/02/05 11:20:30;;;;;;;3.37;2.00;;;6.90;99.90;;;8.09;86.10;-20002.19;5091708;28;20216;-68
2022/02/05 11:23:04;;;;;;;4.63;2.03;;;7.00;99.90;;;7.85;86.21;-19994.16;5091135;28;20253;-71
2022/02/05 11:25:37;;;;;;;5.40;2.50;;;7.00;99.90;;;7.96;87.57;-19997.94;5091138;28;20238;-70
2022/02/05 11:28:06;;;;;;;6.30;2.60;;;6.90;99.90;;;8.14;84.90;-20003.91;5091100;28;20219;-69
2022/02/05 11:30:42;;;;;;;5.23;2.57;;;7.10;99.90;;;8.46;85.66;-20014.84;5091118;28;20232;-69
2022/02/05 11:33:24;;;;;;;4.13;2.07;;;7.30;99.90;;;8.37;82.82;-20011.78;5090821;28;20292;-69
2022/02/05 11:36:39;;;;;;;3.73;1.77;;;7.40;99.90;;;8.48;82.05;-20015.53;5090926;28;20261;-69
2022/02/05 11:39:02;;;;;;;4.00;2.00;;;7.40;99.90;;;8.54;81.38;-20017.75;5090848;28;20227;-73
2022/02/05 11:41:36;;;;;;;3.73;1.90;;;7.50;99.90;;;8.71;79.97;-20023.22;5092206;28;20184;-73
2022/02/05 11:44:22;;;;;;;4.27;2.03;;;7.50;99.90;;;8.97;77.38;-20032.28;5092284;28;20252;-72
2022/02/05 11:47:30;;;;;;;6.07;1.90;;;7.70;99.90;;;9.27;75.66;-20042.53;5091253;28;20236;-63
2022/02/05 11:50:23;;;;;;;5.50;2.03;;;7.90;99.90;;;9.34;77.10;-20044.91;5090462;28;20220;-62
2022/02/05 11:52:57;;;;;;;5.33;2.07;;;8.00;99.90;;;9.33;76.39;-20044.56;5090115;28;20259;-62
2022/02/05 11:55:37;;;;;;;4.73;2.40;;;8.20;99.90;;;9.05;78.47;-20035.00;5090190;28;20254;-62
2022/02/05 11:58:09;;;;;;;3.47;1.73;;;8.00;99.90;;;8.87;79.67;-20028.84;5090082;28;20227;-69
2022/02/05 12:00:40;;;;;;;3.43;1.50;;;7.90;99.90;;;8.67;78.11;-20021.84;5091673;28;20273;-67
2022/02/05 12:03:29;;;;;;;4.53;1.50;;;7.80;99.90;;;8.64;78.12;-20021.00;5090106;28;20247;-70
2022/02/05 12:06:11;;;;;;;4.73;2.27;;;7.70;99.90;;;8.47;77.69;-20015.34;5090554;28;20311;-71
2022/02/05 12:08:44;;;;;;;3.30;1.43;;;7.60;99.90;;;8.41;77.81;-20013.13;5090945;28;20192;-74
2022/02/05 12:11:35;;;;;;;3.60;1.63;;;7.50;99.90;;;8.47;77.25;-20015.19;5091048;28;20617;-72
2022/02/05 12:14:12;;;;;;;5.40;1.57;;;7.50;99.90;;;8.88;75.70;-20029.03;5088787;28;20337;-70
2022/02/05 12:17:06;;;;;;;3.83;1.30;;;7.60;99.90;;;9.00;65.42;-20033.28;5092527;28;20254;-71